sensor_id;sensor_type;location;lat;lon;timestamp;temperature;humidity
5675;DHT22;2860;54.284;10.158;2024-02-14T00:00:00;4.80;99.90
5675;DHT22;2860;54.284;10.158;2024-02-14T00:02:26;4.80;99.90
5675;DHT22;2860;54.284;10.158;2024-02-14T00:04:52;4.70;99.90
5675;DHT22;2860;54.284;10.158;2024-02-14T00:07:19;4.70;99.90
5675;DHT22;2860;54.284;10.158;2024-02-14T00:09:44;4.60;99.90
5675;DHT22;2860;54.284;10.158;2024-02-14T00:12:10;4.60;99.90
5675;DHT22;2860;54.284;10.158;2024-02-14T00:14:37;4.60;99.90
5675;DHT22;2860;54.284;10.158;2024-02-14T00:17:03;4.50;99.90
5675;DHT22;2860;54.284;10.158;2024-02-14T00:19:29;4.50;99.90
5675;DHT22;2860;54.284;10.158;2024-02-14T00:21:54;4.50;99.90
5675;DHT22;2860;54.284;10.158;2024-02-14T00:24:20;4.50;99.90
5675;DHT22;2860;54.284;10.158;2024-02-14T00:26:45;4.40;99.90
5675;DHT22;2860;54.284;10.158;2024-02-14T00:29:11;4.40;99.90
5675;DHT22;2860;54.284;10.158;2024-02-14T00:31:37;4.30;99.90
5675;DHT22;2860;54.284;10.158;2024-02-14T00:34:02;4.20;99.90
5675;DHT22;2860;54.284;10.158;2024-02-14T00:36:28;4.20;99.90
5675;DHT22;2860;54.284;10.158;2024-02-14T00:38:53;4.20;99.90
5675;DHT22;2860;54.284;10.158;2024-02-14T00:41:19;4.20;99.90
5675;DHT22;2860;54.284;10.158;2024-02-14T00:43:44;4.20;99.90
5675;DHT22;2860;54.284;10.158;2024-02-14T00:46:16;4.10;99.90
5675;DHT22;2860;54.284;10.158;2024-02-14T00:48:42;4.10;99.90
5675;DHT22;2860;54.284;10.158;2024-02-14T00:51:07;4.10;99.90
5675;DHT22;2860;54.284;10.158;2024-02-14T00:53:33;4.10;99.90
5675;DHT22;2860;54.284;10.158;2024-02-14T00:55:58;4.10;99.90
5675;DHT22;2860;54.284;10.158;2024-02-14T00:58:24;4.10;99.90
5675;DHT22;2860;54.284;10.158;2024-02-14T01:00:49;4.10;99.90
5675;DHT22;2860;54.284;10.158;2024-02-14T01:03:15;4.10;99.90
5675;DHT22;2860;54.284;10.158;2024-02-14T01:05:41;4.10;99.90
5675;DHT22;2860;54.284;10.158;2024-02-14T01:08:07;4.00;99.90
5675;DHT22;2860;54.284;10.158;2024-02-14T01:10:33;4.10;99.90
5675;DHT22;2860;54.284;10.158;2024-02-14T01:12:58;4.00;99.90
5675;DHT22;2860;54.284;10.158;2024-02-14T01:15:24;4.00;99.90
5675;DHT22;2860;54.284;10.158;2024-02-14T01:17:49;4.10;99.90
5675;DHT22;2860;54.284;10.158;2024-02-14T01:20:15;4.10;99.90
5675;DHT22;2860;54.284;10.158;2024-02-14T01:22:41;4.00;99.90
5675;DHT22;2860;54.284;10.158;2024-02-14T01:25:06;4.00;99.90
5675;DHT22;2860;54.284;10.158;2024-02-14T01:27:32;4.00;99.90
5675;DHT22;2860;54.284;10.158;2024-02-14T01:29:58;4.00;99.90
5675;DHT22;2860;54.284;10.158;2024-02-14T01:32:23;4.00;99.90
5675;DHT22;2860;54.284;10.158;2024-02-14T01:34:49;4.00;99.90
5675;DHT22;2860;54.284;10.158;2024-02-14T01:37:14;4.00;99.90
5675;DHT22;2860;54.284;10.158;2024-02-14T01:39:40;4.00;99.90
5675;DHT22;2860;54.284;10.158;2024-02-14T01:42:05;4.00;99.90
5675;DHT22;2860;54.284;10.158;2024-02-14T01:44:33;4.00;99.90
5675;DHT22;2860;54.284;10.158;2024-02-14T01:46:59;4.00;99.90
5675;DHT22;2860;54.284;10.158;2024-02-14T01:49:25;4.00;99.90
5675;DHT22;2860;54.284;10.158;2024-02-14T01:51:55;4.00;99.90
5675;DHT22;2860;54.284;10.158;2024-02-14T01:54:21;3.90;99.90
5675;DHT22;2860;54.284;10.158;2024-02-14T01:56:47;3.90;99.90
5675;DHT22;2860;54.284;10.158;2024-02-14T01:59:13;3.90;99.90
5675;DHT22;2860;54.284;10.158;2024-02-14T02:01:41;3.90;99.90
5675;DHT22;2860;54.284;10.158;2024-02-14T02:04:06;3.90;99.90
5675;DHT22;2860;54.284;10.158;2024-02-14T02:06:32;4.00;99.90
5675;DHT22;2860;54.284;10.158;2024-02-14T02:08:58;3.90;99.90
5675;DHT22;2860;54.284;10.158;2024-02-14T02:11:24;3.90;99.90
5675;DHT22;2860;54.284;10.158;2024-02-14T02:13:50;4.00;99.90
5675;DHT22;2860;54.284;10.158;2024-02-14T02:16:16;4.00;99.90
5675;DHT22;2860;54.284;10.158;2024-02-14T02:18:41;4.00;99.90
5675;DHT22;2860;54.284;10.158;2024-02-14T02:21:10;4.00;99.90
5675;DHT22;2860;54.284;10.158;2024-02-14T02:23:45;4.00;99.90
5675;DHT22;2860;54.284;10.158;2024-02-14T02:26:11;4.00;99.90
5675;DHT22;2860;54.284;10.158;2024-02-14T02:28:37;4.00;99.90
5675;DHT22;2860;54.284;10.158;2024-02-14T02:31:05;4.00;99.90
5675;DHT22;2860;54.284;10.158;2024-02-14T02:33:30;4.00;99.90
5675;DHT22;2860;54.284;10.158;2024-02-14T02:36:15;4.00;99.90
5675;DHT22;2860;54.284;10.158;2024-02-14T02:38:41;4.00;99.90
5675;DHT22;2860;54.284;10.158;2024-02-14T02:41:07;4.10;99.90
5675;DHT22;2860;54.284;10.158;2024-02-14T02:43:33;4.10;99.90
5675;DHT22;2860;54.284;10.158;2024-02-14T02:45:58;4.10;99.90
5675;DHT22;2860;54.284;10.158;2024-02-14T02:48:24;4.10;99.90
5675;DHT22;2860;54.284;10.158;2024-02-14T02:50:50;4.10;99.90
5675;DHT22;2860;54.284;10.158;2024-02-14T02:53:16;4.10;99.90
5675;DHT22;2860;54.284;10.158;2024-02-14T02:55:42;4.10;99.90
5675;DHT22;2860;54.284;10.158;2024-02-14T02:58:08;4.10;99.90
5675;DHT22;2860;54.284;10.158;2024-02-14T03:00:34;4.10;99.90
5675;DHT22;2860;54.284;10.158;2024-02-14T03:02:59;4.10;99.90
5675;DHT22;2860;54.284;10.158;2024-02-14T03:05:25;4.10;99.90
5675;DHT22;2860;54.284;10.158;2024-02-14T03:07:51;4.10;99.90
5675;DHT22;2860;54.284;10.158;2024-02-14T03:10:18;4.10;99.90
5675;DHT22;2860;54.284;10.158;2024-02-14T03:12:49;4.10;99.90
5675;DHT22;2860;54.284;10.158;2024-02-14T03:15:16;4.10;99.90
5675;DHT22;2860;54.284;10.158;2024-02-14T03:17:41;4.10;99.90
5675;DHT22;2860;54.284;10.158;2024-02-14T03:20:08;4.10;99.90
5675;DHT22;2860;54.284;10.158;2024-02-14T03:22:40;4.10;99.90
5675;DHT22;2860;54.284;10.158;2024-02-14T03:25:13;4.10;99.90
5675;DHT22;2860;54.284;10.158;2024-02-14T03:27:41;4.10;99.90
5675;DHT22;2860;54.284;10.158;2024-02-14T03:30:07;4.10;99.90
5675;DHT22;2860;54.284;10.158;2024-02-14T03:32:33;4.10;99.90
5675;DHT22;2860;54.284;10.158;2024-02-14T03:34:58;4.10;99.90
5675;DHT22;2860;54.284;10.158;2024-02-14T03:37:26;4.10;99.90
5675;DHT22;2860;54.284;10.158;2024-02-14T03:39:51;4.10;99.90
5675;DHT22;2860;54.284;10.158;2024-02-14T03:42:17;4.10;99.90
5675;DHT22;2860;54.284;10.158;2024-02-14T03:44:43;4.20;99.90
5675;DHT22;2860;54.284;10.158;2024-02-14T03:47:09;4.20;99.90
5675;DHT22;2860;54.284;10.158;2024-02-14T03:49:34;4.20;99.90
5675;DHT22;2860;54.284;10.158;2024-02-14T03:52:00;4.20;99.90
5675;DHT22;2860;54.284;10.158;2024-02-14T03:54:26;4.20;99.90
5675;DHT22;2860;54.284;10.158;2024-02-14T03:56:52;4.20;99.90
5675;DHT22;2860;54.284;10.158;2024-02-14T03:59:18;4.20;99.90
5675;DHT22;2860;54.284;10.158;2024-02-14T04:01:49;4.20;99.90
5675;DHT22;2860;54.284;10.158;2024-02-14T04:04:16;4.20;99.90
5675;DHT22;2860;54.284;10.158;2024-02-14T04:06:41;4.20;99.90
5675;DHT22;2860;54.284;10.158;2024-02-14T04:09:07;4.20;99.90
5675;DHT22;2860;54.284;10.158;2024-02-14T04:11:33;4.20;99.90
5675;DHT22;2860;54.284;10.158;2024-02-14T04:13:59;4.20;99.90
5675;DHT22;2860;54.284;10.158;2024-02-14T04:16:24;4.20;99.90
5675;DHT22;2860;54.284;10.158;2024-02-14T04:18:49;4.20;99.90
5675;DHT22;2860;54.284;10.158;2024-02-14T04:21:15;4.20;99.90
5675;DHT22;2860;54.284;10.158;2024-02-14T04:23:41;4.20;99.90
5675;DHT22;2860;54.284;10.158;2024-02-14T04:26:07;4.20;99.90
5675;DHT22;2860;54.284;10.158;2024-02-14T04:28:33;4.20;99.90
5675;DHT22;2860;54.284;10.158;2024-02-14T04:30:59;4.20;99.90
5675;DHT22;2860;54.284;10.158;2024-02-14T04:33:24;4.20;99.90
5675;DHT22;2860;54.284;10.158;2024-02-14T04:35:50;4.20;99.90
5675;DHT22;2860;54.284;10.158;2024-02-14T04:38:16;4.20;99.90
5675;DHT22;2860;54.284;10.158;2024-02-14T04:40:43;4.20;99.90
5675;DHT22;2860;54.284;10.158;2024-02-14T04:43:09;4.20;99.90
5675;DHT22;2860;54.284;10.158;2024-02-14T04:45:35;4.20;99.90
5675;DHT22;2860;54.284;10.158;2024-02-14T04:48:01;4.20;99.90
5675;DHT22;2860;54.284;10.158;2024-02-14T04:50:27;4.20;99.90
5675;DHT22;2860;54.284;10.158;2024-02-14T04:52:52;4.20;99.90
5675;DHT22;2860;54.284;10.158;2024-02-14T04:55:18;4.20;99.90
5675;DHT22;2860;54.284;10.158;2024-02-14T04:57:44;4.20;99.90
5675;DHT22;2860;54.284;10.158;2024-02-14T05:00:10;4.30;99.90
5675;DHT22;2860;54.284;10.158;2024-02-14T05:02:36;4.30;99.90
5675;DHT22;2860;54.284;10.158;2024-02-14T05:05:02;4.30;99.90
5675;DHT22;2860;54.284;10.158;2024-02-14T05:07:28;4.30;99.90
5675;DHT22;2860;54.284;10.158;2024-02-14T05:09:54;4.30;99.90
5675;DHT22;2860;54.284;10.158;2024-02-14T05:12:21;4.30;99.90
5675;DHT22;2860;54.284;10.158;2024-02-14T05:14:47;4.30;99.90
5675;DHT22;2860;54.284;10.158;2024-02-14T05:17:14;4.30;99.90
5675;DHT22;2860;54.284;10.158;2024-02-14T05:19:41;4.30;99.90
5675;DHT22;2860;54.284;10.158;2024-02-14T05:22:07;4.30;99.90
5675;DHT22;2860;54.284;10.158;2024-02-14T05:24:33;4.30;99.90
5675;DHT22;2860;54.284;10.158;2024-02-14T05:27:00;4.30;99.90
5675;DHT22;2860;54.284;10.158;2024-02-14T05:29:26;4.30;99.90
5675;DHT22;2860;54.284;10.158;2024-02-14T05:31:51;4.30;99.90
5675;DHT22;2860;54.284;10.158;2024-02-14T05:34:20;4.30;99.90
5675;DHT22;2860;54.284;10.158;2024-02-14T05:36:46;4.30;99.90
5675;DHT22;2860;54.284;10.158;2024-02-14T05:39:12;4.30;99.90
5675;DHT22;2860;54.284;10.158;2024-02-14T05:41:37;4.30;99.90
5675;DHT22;2860;54.284;10.158;2024-02-14T05:44:03;4.30;99.90
5675;DHT22;2860;54.284;10.158;2024-02-14T05:46:29;4.30;99.90
5675;DHT22;2860;54.284;10.158;2024-02-14T05:48:54;4.30;99.90
5675;DHT22;2860;54.284;10.158;2024-02-14T05:51:22;4.30;99.90
5675;DHT22;2860;54.284;10.158;2024-02-14T05:53:48;4.30;99.90
5675;DHT22;2860;54.284;10.158;2024-02-14T05:56:13;4.30;99.90
5675;DHT22;2860;54.284;10.158;2024-02-14T05:58:39;4.30;99.90
5675;DHT22;2860;54.284;10.158;2024-02-14T06:01:04;4.30;99.90
5675;DHT22;2860;54.284;10.158;2024-02-14T06:03:31;4.30;99.90
5675;DHT22;2860;54.284;10.158;2024-02-14T06:05:57;4.30;99.90
5675;DHT22;2860;54.284;10.158;2024-02-14T06:08:22;4.30;99.90
5675;DHT22;2860;54.284;10.158;2024-02-14T06:10:49;4.30;99.90
5675;DHT22;2860;54.284;10.158;2024-02-14T06:13:15;4.40;99.90
5675;DHT22;2860;54.284;10.158;2024-02-14T06:15:40;4.40;99.90
5675;DHT22;2860;54.284;10.158;2024-02-14T06:18:06;4.40;99.90
5675;DHT22;2860;54.284;10.158;2024-02-14T06:20:31;4.40;99.90
5675;DHT22;2860;54.284;10.158;2024-02-14T06:22:57;4.40;99.90
5675;DHT22;2860;54.284;10.158;2024-02-14T06:25:23;4.40;99.90
5675;DHT22;2860;54.284;10.158;2024-02-14T06:27:48;4.40;99.90
5675;DHT22;2860;54.284;10.158;2024-02-14T06:30:14;4.40;99.90
5675;DHT22;2860;54.284;10.158;2024-02-14T06:32:39;4.40;99.90
5675;DHT22;2860;54.284;10.158;2024-02-14T06:35:05;4.40;99.90
5675;DHT22;2860;54.284;10.158;2024-02-14T06:37:31;4.40;99.90
5675;DHT22;2860;54.284;10.158;2024-02-14T06:39:56;4.40;99.90
5675;DHT22;2860;54.284;10.158;2024-02-14T06:42:22;4.40;99.90
5675;DHT22;2860;54.284;10.158;2024-02-14T06:44:48;4.40;99.90
5675;DHT22;2860;54.284;10.158;2024-02-14T06:47:15;4.40;99.90
5675;DHT22;2860;54.284;10.158;2024-02-14T06:49:40;4.50;99.90
5675;DHT22;2860;54.284;10.158;2024-02-14T06:52:06;4.40;99.90
5675;DHT22;2860;54.284;10.158;2024-02-14T06:54:31;4.50;99.90
5675;DHT22;2860;54.284;10.158;2024-02-14T06:56:56;4.50;99.90
5675;DHT22;2860;54.284;10.158;2024-02-14T06:59:22;4.50;99.90
5675;DHT22;2860;54.284;10.158;2024-02-14T07:01:48;4.50;99.90
5675;DHT22;2860;54.284;10.158;2024-02-14T07:04:14;4.50;99.90
5675;DHT22;2860;54.284;10.158;2024-02-14T07:06:39;4.50;99.90
5675;DHT22;2860;54.284;10.158;2024-02-14T07:09:05;4.50;99.90
5675;DHT22;2860;54.284;10.158;2024-02-14T07:11:31;4.50;99.90
5675;DHT22;2860;54.284;10.158;2024-02-14T07:13:56;4.50;99.90
5675;DHT22;2860;54.284;10.158;2024-02-14T07:16:22;4.60;99.90
5675;DHT22;2860;54.284;10.158;2024-02-14T07:18:49;4.50;99.90
5675;DHT22;2860;54.284;10.158;2024-02-14T07:21:15;4.50;99.90
5675;DHT22;2860;54.284;10.158;2024-02-14T07:23:40;4.60;99.90
5675;DHT22;2860;54.284;10.158;2024-02-14T07:26:06;4.60;99.90
5675;DHT22;2860;54.284;10.158;2024-02-14T07:28:31;4.60;99.90
5675;DHT22;2860;54.284;10.158;2024-02-14T07:30:57;4.60;99.90
5675;DHT22;2860;54.284;10.158;2024-02-14T07:33:23;4.60;99.90
5675;DHT22;2860;54.284;10.158;2024-02-14T07:35:49;4.60;99.90
5675;DHT22;2860;54.284;10.158;2024-02-14T07:38:15;4.60;99.90
5675;DHT22;2860;54.284;10.158;2024-02-14T07:40:42;4.70;99.90
5675;DHT22;2860;54.284;10.158;2024-02-14T07:43:07;4.70;99.90
5675;DHT22;2860;54.284;10.158;2024-02-14T07:45:33;4.70;99.90
5675;DHT22;2860;54.284;10.158;2024-02-14T07:47:58;4.70;99.90
5675;DHT22;2860;54.284;10.158;2024-02-14T07:50:24;4.80;99.90
5675;DHT22;2860;54.284;10.158;2024-02-14T07:52:49;4.80;99.90
5675;DHT22;2860;54.284;10.158;2024-02-14T07:55:15;4.80;99.90
5675;DHT22;2860;54.284;10.158;2024-02-14T07:57:41;4.80;99.90
5675;DHT22;2860;54.284;10.158;2024-02-14T08:00:08;4.80;99.90
5675;DHT22;2860;54.284;10.158;2024-02-14T08:02:50;4.90;99.90
5675;DHT22;2860;54.284;10.158;2024-02-14T08:05:16;4.90;99.90
5675;DHT22;2860;54.284;10.158;2024-02-14T08:07:42;4.90;99.90
5675;DHT22;2860;54.284;10.158;2024-02-14T08:10:08;4.90;99.90
5675;DHT22;2860;54.284;10.158;2024-02-14T08:12:34;4.90;99.90
5675;DHT22;2860;54.284;10.158;2024-02-14T08:14:59;5.00;99.90
5675;DHT22;2860;54.284;10.158;2024-02-14T08:17:29;5.00;99.90
5675;DHT22;2860;54.284;10.158;2024-02-14T08:19:55;5.00;99.90
5675;DHT22;2860;54.284;10.158;2024-02-14T08:22:21;5.10;99.90
5675;DHT22;2860;54.284;10.158;2024-02-14T08:24:46;5.10;99.90
5675;DHT22;2860;54.284;10.158;2024-02-14T08:27:12;5.10;99.90
5675;DHT22;2860;54.284;10.158;2024-02-14T08:29:37;5.10;99.90
5675;DHT22;2860;54.284;10.158;2024-02-14T08:32:03;5.20;99.90
5675;DHT22;2860;54.284;10.158;2024-02-14T08:34:30;5.20;99.90
5675;DHT22;2860;54.284;10.158;2024-02-14T08:36:56;5.20;99.90
5675;DHT22;2860;54.284;10.158;2024-02-14T08:39:21;5.20;99.90
5675;DHT22;2860;54.284;10.158;2024-02-14T08:41:47;5.20;99.90
5675;DHT22;2860;54.284;10.158;2024-02-14T08:44:13;5.20;99.90
5675;DHT22;2860;54.284;10.158;2024-02-14T08:46:38;5.30;99.90
5675;DHT22;2860;54.284;10.158;2024-02-14T08:49:04;5.30;99.90
5675;DHT22;2860;54.284;10.158;2024-02-14T08:51:35;5.30;99.90
5675;DHT22;2860;54.284;10.158;2024-02-14T08:54:01;5.40;99.90
5675;DHT22;2860;54.284;10.158;2024-02-14T08:56:32;5.50;99.90
5675;DHT22;2860;54.284;10.158;2024-02-14T08:59:02;5.50;99.90
5675;DHT22;2860;54.284;10.158;2024-02-14T09:01:30;5.60;99.90
5675;DHT22;2860;54.284;10.158;2024-02-14T09:03:56;5.60;99.90
5675;DHT22;2860;54.284;10.158;2024-02-14T09:06:22;5.60;99.90
5675;DHT22;2860;54.284;10.158;2024-02-14T09:08:48;5.70;99.90
5675;DHT22;2860;54.284;10.158;2024-02-14T09:11:13;5.70;99.90
5675;DHT22;2860;54.284;10.158;2024-02-14T09:13:39;5.70;99.90
5675;DHT22;2860;54.284;10.158;2024-02-14T09:16:10;5.70;99.90
5675;DHT22;2860;54.284;10.158;2024-02-14T09:18:37;5.80;99.90
5675;DHT22;2860;54.284;10.158;2024-02-14T09:21:02;5.80;99.90
5675;DHT22;2860;54.284;10.158;2024-02-14T09:23:31;5.90;99.90
5675;DHT22;2860;54.284;10.158;2024-02-14T09:25:57;6.00;99.90
5675;DHT22;2860;54.284;10.158;2024-02-14T09:28:23;6.00;99.90
5675;DHT22;2860;54.284;10.158;2024-02-14T09:30:49;6.10;99.90
5675;DHT22;2860;54.284;10.158;2024-02-14T09:33:14;6.10;99.90
5675;DHT22;2860;54.284;10.158;2024-02-14T09:35:40;6.20;99.90
5675;DHT22;2860;54.284;10.158;2024-02-14T09:38:13;6.20;99.90
5675;DHT22;2860;54.284;10.158;2024-02-14T09:40:41;6.20;99.90
5675;DHT22;2860;54.284;10.158;2024-02-14T09:43:57;6.30;99.90
5675;DHT22;2860;54.284;10.158;2024-02-14T09:45:58;6.30;99.90
5675;DHT22;2860;54.284;10.158;2024-02-14T09:48:23;6.40;99.90
5675;DHT22;2860;54.284;10.158;2024-02-14T09:50:52;6.40;99.90
5675;DHT22;2860;54.284;10.158;2024-02-14T09:53:18;6.50;99.90
5675;DHT22;2860;54.284;10.158;2024-02-14T09:55:46;6.60;99.90
5675;DHT22;2860;54.284;10.158;2024-02-14T09:58:12;6.60;99.90
5675;DHT22;2860;54.284;10.158;2024-02-14T10:00:38;6.60;99.90
5675;DHT22;2860;54.284;10.158;2024-02-14T10:03:04;6.60;99.90
5675;DHT22;2860;54.284;10.158;2024-02-14T10:05:29;6.60;99.90
5675;DHT22;2860;54.284;10.158;2024-02-14T10:07:57;6.60;99.90
5675;DHT22;2860;54.284;10.158;2024-02-14T10:10:23;6.70;99.90
5675;DHT22;2860;54.284;10.158;2024-02-14T10:12:48;6.70;99.90
5675;DHT22;2860;54.284;10.158;2024-02-14T10:15:14;6.70;99.90
5675;DHT22;2860;54.284;10.158;2024-02-14T10:17:40;6.80;99.90
5675;DHT22;2860;54.284;10.158;2024-02-14T10:20:08;6.80;99.90
5675;DHT22;2860;54.284;10.158;2024-02-14T10:22:35;6.90;99.90
5675;DHT22;2860;54.284;10.158;2024-02-14T10:25:03;6.90;99.90
5675;DHT22;2860;54.284;10.158;2024-02-14T10:27:30;6.90;99.90
5675;DHT22;2860;54.284;10.158;2024-02-14T10:29:59;6.90;99.90
5675;DHT22;2860;54.284;10.158;2024-02-14T10:32:24;6.90;99.90
5675;DHT22;2860;54.284;10.158;2024-02-14T10:34:50;6.80;99.90
5675;DHT22;2860;54.284;10.158;2024-02-14T10:37:17;6.80;99.90
5675;DHT22;2860;54.284;10.158;2024-02-14T10:39:45;6.80;99.90
5675;DHT22;2860;54.284;10.158;2024-02-14T10:42:12;6.80;99.90
5675;DHT22;2860;54.284;10.158;2024-02-14T10:44:38;6.80;99.90
5675;DHT22;2860;54.284;10.158;2024-02-14T10:47:07;7.00;99.90
5675;DHT22;2860;54.284;10.158;2024-02-14T10:49:36;7.00;99.90
5675;DHT22;2860;54.284;10.158;2024-02-14T10:52:05;7.20;99.90
5675;DHT22;2860;54.284;10.158;2024-02-14T10:54:35;7.10;99.90
5675;DHT22;2860;54.284;10.158;2024-02-14T10:57:05;7.20;99.90
5675;DHT22;2860;54.284;10.158;2024-02-14T10:59:34;7.30;99.90
5675;DHT22;2860;54.284;10.158;2024-02-14T11:02:00;7.30;99.90
5675;DHT22;2860;54.284;10.158;2024-02-14T11:04:26;7.30;99.90
5675;DHT22;2860;54.284;10.158;2024-02-14T11:06:52;7.30;99.90
5675;DHT22;2860;54.284;10.158;2024-02-14T11:09:36;7.40;99.90
5675;DHT22;2860;54.284;10.158;2024-02-14T11:12:03;7.50;99.90
5675;DHT22;2860;54.284;10.158;2024-02-14T11:14:32;7.60;99.90
5675;DHT22;2860;54.284;10.158;2024-02-14T11:17:03;7.60;99.90
5675;DHT22;2860;54.284;10.158;2024-02-14T11:19:33;7.70;99.90
5675;DHT22;2860;54.284;10.158;2024-02-14T11:22:13;7.70;99.90
5675;DHT22;2860;54.284;10.158;2024-02-14T11:24:45;7.80;99.90
5675;DHT22;2860;54.284;10.158;2024-02-14T11:27:11;7.80;99.90
5675;DHT22;2860;54.284;10.158;2024-02-14T11:29:39;7.90;99.90
5675;DHT22;2860;54.284;10.158;2024-02-14T11:32:06;7.90;99.90
5675;DHT22;2860;54.284;10.158;2024-02-14T11:34:34;8.00;99.90
5675;DHT22;2860;54.284;10.158;2024-02-14T11:36:59;8.10;99.90
5675;DHT22;2860;54.284;10.158;2024-02-14T11:39:27;8.20;99.90
5675;DHT22;2860;54.284;10.158;2024-02-14T11:41:56;8.30;99.90
5675;DHT22;2860;54.284;10.158;2024-02-14T11:44:23;8.30;99.90
5675;DHT22;2860;54.284;10.158;2024-02-14T11:46:49;8.40;99.90
5675;DHT22;2860;54.284;10.158;2024-02-14T11:49:14;8.50;99.90
5675;DHT22;2860;54.284;10.158;2024-02-14T11:51:42;8.60;99.90
5675;DHT22;2860;54.284;10.158;2024-02-14T11:54:09;8.70;99.90
5675;DHT22;2860;54.284;10.158;2024-02-14T11:56:38;8.70;99.90
5675;DHT22;2860;54.284;10.158;2024-02-14T11:59:07;8.80;99.90
5675;DHT22;2860;54.284;10.158;2024-02-14T12:01:34;8.80;99.90
5675;DHT22;2860;54.284;10.158;2024-02-14T12:04:01;8.80;99.90
5675;DHT22;2860;54.284;10.158;2024-02-14T12:06:33;8.80;99.90
5675;DHT22;2860;54.284;10.158;2024-02-14T12:09:03;8.80;99.90
5675;DHT22;2860;54.284;10.158;2024-02-14T12:11:35;8.80;99.90
5675;DHT22;2860;54.284;10.158;2024-02-14T12:14:05;8.90;99.90
5675;DHT22;2860;54.284;10.158;2024-02-14T12:16:31;9.00;99.90
5675;DHT22;2860;54.284;10.158;2024-02-14T12:19:04;9.10;99.90
5675;DHT22;2860;54.284;10.158;2024-02-14T12:21:36;9.20;99.90
5675;DHT22;2860;54.284;10.158;2024-02-14T12:24:03;9.30;99.90
5675;DHT22;2860;54.284;10.158;2024-02-14T12:26:30;9.30;99.90
5675;DHT22;2860;54.284;10.158;2024-02-14T12:28:56;9.30;99.90
5675;DHT22;2860;54.284;10.158;2024-02-14T12:31:23;9.30;99.90
5675;DHT22;2860;54.284;10.158;2024-02-14T12:33:49;9.30;99.90
5675;DHT22;2860;54.284;10.158;2024-02-14T12:36:15;9.20;99.90
5675;DHT22;2860;54.284;10.158;2024-02-14T12:38:41;9.30;99.90
5675;DHT22;2860;54.284;10.158;2024-02-14T12:41:06;9.30;99.90
5675;DHT22;2860;54.284;10.158;2024-02-14T12:43:32;9.30;99.90
5675;DHT22;2860;54.284;10.158;2024-02-14T12:45:57;9.40;99.90
5675;DHT22;2860;54.284;10.158;2024-02-14T12:48:24;9.40;99.90
5675;DHT22;2860;54.284;10.158;2024-02-14T12:50:53;9.40;99.90
5675;DHT22;2860;54.284;10.158;2024-02-14T12:53:20;9.50;99.90
5675;DHT22;2860;54.284;10.158;2024-02-14T12:55:46;9.50;99.90
5675;DHT22;2860;54.284;10.158;2024-02-14T12:58:12;9.50;99.90
5675;DHT22;2860;54.284;10.158;2024-02-14T13:00:38;9.50;99.90
5675;DHT22;2860;54.284;10.158;2024-02-14T13:03:03;9.60;99.90
5675;DHT22;2860;54.284;10.158;2024-02-14T13:05:30;9.50;99.90
5675;DHT22;2860;54.284;10.158;2024-02-14T13:07:55;9.50;99.90
5675;DHT22;2860;54.284;10.158;2024-02-14T13:10:21;9.50;99.90
5675;DHT22;2860;54.284;10.158;2024-02-14T13:12:47;9.40;99.90
5675;DHT22;2860;54.284;10.158;2024-02-14T13:15:13;9.30;99.90
5675;DHT22;2860;54.284;10.158;2024-02-14T13:17:38;9.30;99.90
5675;DHT22;2860;54.284;10.158;2024-02-14T13:20:04;9.30;99.90
5675;DHT22;2860;54.284;10.158;2024-02-14T13:22:30;9.20;99.90
5675;DHT22;2860;54.284;10.158;2024-02-14T13:24:55;9.20;99.90
5675;DHT22;2860;54.284;10.158;2024-02-14T13:27:21;9.20;99.90
5675;DHT22;2860;54.284;10.158;2024-02-14T13:29:48;9.20;99.90
5675;DHT22;2860;54.284;10.158;2024-02-14T13:32:14;9.20;99.90
5675;DHT22;2860;54.284;10.158;2024-02-14T13:34:39;9.30;99.90
5675;DHT22;2860;54.284;10.158;2024-02-14T13:37:05;9.30;99.90
5675;DHT22;2860;54.284;10.158;2024-02-14T13:39:31;9.30;99.90
5675;DHT22;2860;54.284;10.158;2024-02-14T13:41:56;9.30;99.90
5675;DHT22;2860;54.284;10.158;2024-02-14T13:44:23;9.30;99.90
5675;DHT22;2860;54.284;10.158;2024-02-14T13:46:50;9.30;99.90
5675;DHT22;2860;54.284;10.158;2024-02-14T13:49:16;9.30;99.90
5675;DHT22;2860;54.284;10.158;2024-02-14T13:51:47;9.30;99.90
5675;DHT22;2860;54.284;10.158;2024-02-14T13:54:13;9.30;99.90
5675;DHT22;2860;54.284;10.158;2024-02-14T13:56:40;9.30;99.90
5675;DHT22;2860;54.284;10.158;2024-02-14T13:59:05;9.30;99.90
5675;DHT22;2860;54.284;10.158;2024-02-14T14:01:31;9.40;99.90
5675;DHT22;2860;54.284;10.158;2024-02-14T14:03:56;9.30;99.90
5675;DHT22;2860;54.284;10.158;2024-02-14T14:06:23;9.40;99.90
5675;DHT22;2860;54.284;10.158;2024-02-14T14:08:50;9.30;99.90
5675;DHT22;2860;54.284;10.158;2024-02-14T14:11:15;9.40;99.90
5675;DHT22;2860;54.284;10.158;2024-02-14T14:13:41;9.40;99.90
5675;DHT22;2860;54.284;10.158;2024-02-14T14:16:06;9.40;99.90
5675;DHT22;2860;54.284;10.158;2024-02-14T14:18:32;9.40;99.90
5675;DHT22;2860;54.284;10.158;2024-02-14T14:20:58;9.30;99.90
5675;DHT22;2860;54.284;10.158;2024-02-14T14:23:23;9.30;99.90
5675;DHT22;2860;54.284;10.158;2024-02-14T14:25:49;9.40;99.90
5675;DHT22;2860;54.284;10.158;2024-02-14T14:28:14;9.40;99.90
5675;DHT22;2860;54.284;10.158;2024-02-14T14:30:41;9.40;99.90
5675;DHT22;2860;54.284;10.158;2024-02-14T14:33:07;9.40;99.90
5675;DHT22;2860;54.284;10.158;2024-02-14T14:35:36;9.40;99.90
5675;DHT22;2860;54.284;10.158;2024-02-14T14:38:05;9.40;99.90
5675;DHT22;2860;54.284;10.158;2024-02-14T14:40:30;9.30;99.90
5675;DHT22;2860;54.284;10.158;2024-02-14T14:42:56;9.30;99.90
5675;DHT22;2860;54.284;10.158;2024-02-14T14:45:22;9.30;99.90
5675;DHT22;2860;54.284;10.158;2024-02-14T14:47:47;9.30;99.90
5675;DHT22;2860;54.284;10.158;2024-02-14T14:50:14;9.30;99.90
5675;DHT22;2860;54.284;10.158;2024-02-14T14:52:41;9.30;99.90
5675;DHT22;2860;54.284;10.158;2024-02-14T14:55:09;9.20;99.90
5675;DHT22;2860;54.284;10.158;2024-02-14T14:57:35;9.20;99.90
5675;DHT22;2860;54.284;10.158;2024-02-14T15:00:07;9.20;99.90
5675;DHT22;2860;54.284;10.158;2024-02-14T15:02:35;9.10;99.90
5675;DHT22;2860;54.284;10.158;2024-02-14T15:05:01;9.10;99.90
5675;DHT22;2860;54.284;10.158;2024-02-14T15:07:26;9.10;99.90
5675;DHT22;2860;54.284;10.158;2024-02-14T15:09:52;9.10;99.90
5675;DHT22;2860;54.284;10.158;2024-02-14T15:12:18;9.10;99.90
5675;DHT22;2860;54.284;10.158;2024-02-14T15:14:43;9.00;99.90
5675;DHT22;2860;54.284;10.158;2024-02-14T15:17:09;9.00;99.90
5675;DHT22;2860;54.284;10.158;2024-02-14T15:19:34;9.00;99.90
5675;DHT22;2860;54.284;10.158;2024-02-14T15:22:00;9.10;99.90
5675;DHT22;2860;54.284;10.158;2024-02-14T15:24:28;9.00;99.90
5675;DHT22;2860;54.284;10.158;2024-02-14T15:26:54;9.00;99.90
5675;DHT22;2860;54.284;10.158;2024-02-14T15:29:25;9.00;99.90
5675;DHT22;2860;54.284;10.158;2024-02-14T15:32:09;9.10;99.90
5675;DHT22;2860;54.284;10.158;2024-02-14T15:34:54;9.00;99.90
5675;DHT22;2860;54.284;10.158;2024-02-14T15:37:21;9.10;99.90
5675;DHT22;2860;54.284;10.158;2024-02-14T15:39:46;9.00;99.90
5675;DHT22;2860;54.284;10.158;2024-02-14T15:42:12;9.00;99.90
5675;DHT22;2860;54.284;10.158;2024-02-14T15:44:37;9.10;99.90
5675;DHT22;2860;54.284;10.158;2024-02-14T15:47:03;9.00;99.90
5675;DHT22;2860;54.284;10.158;2024-02-14T15:49:29;9.00;99.90
5675;DHT22;2860;54.284;10.158;2024-02-14T15:51:54;9.00;99.90
5675;DHT22;2860;54.284;10.158;2024-02-14T15:54:20;9.00;99.90
5675;DHT22;2860;54.284;10.158;2024-02-14T15:56:46;9.00;99.90